Terminal Aerodrome Forecast
Issued by NWS

Home | Current Version | Previous Version | Text Only | Print | Product List | Glossary On
Versions: 1 2 3 4 5 6 7 8 9 10 11 12 13 14 15 16 17 18 19 20 21 22 23 24 25
000
FTUS45 KRIW 242321
TAFRKS
TAF
KRKS 242321Z 2500/2524 06016G26KT P6SM VCTS SCT015 OVC040CB
      TEMPO 2500/2501 VRB20G30KT 3SM -TSSN OVC012CB
     FM250600 07012KT 6SM -SN SCT010 OVC020
     FM250900 33007KT P6SM VCSH OVC025
     FM251200 26007KT P6SM VCSH BKN050=

USA.gov is the U.S. government's official web portal to all federal, state and local government web resources and services.